Time;durP1;ratioP1;P1;durP2;ratioP2;P2;SDS_P1;SDS_P2;PMS_P1;PMS_P2;Temp;Humidity;BMP_temperature;BMP_pressure;BME280_temperature;BME280_humidity;BME280_pressure;Samples;Min_cycle;Max_cycle;Signal;HPM_P1;HPM_P2
2022/11/20 00:00:03;;;;;;;14.88;9.07;;;;;;;0.87;70.96;101253.41;5137035;27;20031;-60
2022/11/20 00:02:29;;;;;;;14.23;8.30;;;;;;;0.84;70.51;101256.72;5137048;27;20023;-60
2022/11/20 00:04:54;;;;;;;13.70;9.13;;;;;;;0.83;70.00;101262.75;5137198;27;20076;-60
2022/11/20 00:07:19;;;;;;;14.98;9.45;;;;;;;0.83;70.41;101264.44;5136799;27;20168;-60
2022/11/20 00:09:45;;;;;;;14.05;8.55;;;;;;;0.84;70.40;101258.44;5135662;27;20023;-60
2022/11/20 00:12:10;;;;;;;14.13;8.85;;;;;;;0.82;69.98;101260.06;5136900;27;20055;-60
2022/11/20 00:14:35;;;;;;;14.43;9.65;;;;;;;0.86;69.93;101262.03;5136814;27;20053;-60
2022/11/20 00:17:01;;;;;;;14.48;9.10;;;;;;;0.86;69.91;101252.50;5136762;27;20023;-60
2022/11/20 00:19:26;;;;;;;16.05;8.57;;;;;;;0.88;70.15;101253.47;5136713;27;20027;-60
2022/11/20 00:21:53;;;;;;;14.55;9.48;;;;;;;0.84;69.68;101256.72;5136425;27;20400;-60
2022/11/20 00:24:19;;;;;;;14.45;9.18;;;;;;;0.89;70.54;101251.78;5136793;27;20051;-62
2022/11/20 00:26:44;;;;;;;14.07;8.90;;;;;;;0.98;70.04;101252.28;5136661;27;20062;-60
2022/11/20 00:29:10;;;;;;;14.63;8.85;;;;;;;1.02;69.67;101251.63;5136490;27;20028;-61
2022/11/20 00:31:35;;;;;;;13.07;8.63;;;;;;;1.02;69.13;101256.84;5135311;27;20027;-60
2022/11/20 00:34:01;;;;;;;19.52;9.45;;;;;;;0.99;69.18;101262.78;5136445;27;20054;-60
2022/11/20 00:36:28;;;;;;;13.85;8.98;;;;;;;0.96;69.08;101259.13;5136135;27;20043;-60
2022/11/20 00:38:56;;;;;;;13.85;8.25;;;;;;;0.98;70.50;101258.38;5136238;27;20141;-60
2022/11/20 00:41:22;;;;;;;14.65;8.93;;;;;;;0.97;69.30;101253.09;5136745;27;20018;-60
2022/11/20 00:43:48;;;;;;;13.25;8.52;;;;;;;0.89;69.69;101251.78;5134995;27;20030;-60
2022/11/20 00:46:18;;;;;;;13.00;8.60;;;;;;;0.79;70.14;101255.56;5136175;27;20023;-60
2022/11/20 00:48:44;;;;;;;14.23;8.90;;;;;;;0.88;70.96;101250.88;5136495;27;20027;-60
2022/11/20 00:51:15;;;;;;;13.90;8.65;;;;;;;0.98;70.88;101245.38;5136397;27;20057;-60
2022/11/20 00:53:41;;;;;;;14.60;8.90;;;;;;;1.02;70.66;101250.75;5136055;27;20024;-60
2022/11/20 00:56:10;;;;;;;15.57;9.05;;;;;;;1.00;70.38;101248.97;5134787;27;20023;-60
2022/11/20 00:58:37;;;;;;;15.40;9.02;;;;;;;0.88;70.44;101244.78;5135941;27;20016;-60
2022/11/20 01:01:06;;;;;;;15.45;8.82;;;;;;;0.73;70.32;101250.94;5135943;27;20019;-60
2022/11/20 01:03:33;;;;;;;13.75;8.73;;;;;;;0.68;71.59;101252.34;5135875;27;20473;-60
2022/11/20 01:06:06;;;;;;;11.88;8.20;;;;;;;0.73;72.15;101245.72;5135753;27;20023;-60
2022/11/20 01:08:33;;;;;;;15.02;8.75;;;;;;;0.73;71.27;101252.63;5134565;27;20051;-60
2022/11/20 01:11:01;;;;;;;12.52;8.20;;;;;;;0.65;71.41;101253.91;5136000;27;20015;-60
2022/11/20 01:13:39;;;;;;;14.80;8.65;;;;;;;0.65;72.60;101252.19;5136000;27;20079;-60
2022/11/20 01:16:10;;;;;;;13.95;8.77;;;;;;;0.70;71.71;101250.75;5134675;27;20039;-60
2022/11/20 01:18:38;;;;;;;15.75;9.25;;;;;;;0.73;71.31;101253.53;5135569;27;20052;-60
2022/11/20 01:21:05;;;;;;;14.48;9.07;;;;;;;0.64;71.40;101249.47;5135813;27;20046;-60
2022/11/20 01:23:32;;;;;;;18.23;9.55;;;;;;;0.58;71.33;101243.94;5135751;27;20019;-61
2022/11/20 01:26:00;;;;;;;14.77;9.10;;;;;;;0.46;71.81;101242.44;5134109;27;20088;-60
2022/11/20 01:28:26;;;;;;;16.60;9.48;;;;;;;0.36;71.91;101244.44;5135480;27;20023;-60
2022/11/20 01:30:51;;;;;;;15.18;10.02;;;;;;;0.29;71.93;101252.66;5135453;27;20080;-60
2022/11/20 01:33:16;;;;;;;14.55;8.98;;;;;;;0.23;72.36;101246.31;5135398;27;20495;-60
2022/11/20 01:35:42;;;;;;;16.38;9.32;;;;;;;0.24;72.35;101245.50;5133770;27;20080;-60
2022/11/20 01:38:07;;;;;;;15.75;9.75;;;;;;;0.26;72.82;101240.41;5135055;27;20472;-60
2022/11/20 01:40:32;;;;;;;16.52;9.43;;;;;;;0.36;73.17;101245.31;5135131;27;20058;-60
2022/11/20 01:43:22;;;;;;;15.55;9.70;;;;;;;0.44;72.30;101241.47;5135171;27;20069;-60
2022/11/20 01:46:02;;;;;;;14.75;9.10;;;;;;;0.44;72.25;101238.84;5135354;27;20102;-60
2022/11/20 01:49:10;;;;;;;14.20;8.77;;;;;;;0.43;72.34;101244.88;5135095;27;20019;-60
2022/11/20 01:51:43;;;;;;;13.75;8.50;;;;;;;0.35;72.05;101246.13;5120871;27;20476;-60
2022/11/20 01:54:14;;;;;;;15.23;9.25;;;;;;;0.37;72.48;101246.22;5134510;27;20027;-60
2022/11/20 01:56:44;;;;;;;16.48;10.00;;;;;;;0.48;72.57;101243.44;5135173;27;20054;-60
2022/11/20 01:59:13;;;;;;;14.48;9.20;;;;;;;0.53;71.67;101245.41;5135026;27;20376;-60
2022/11/20 02:01:38;;;;;;;13.70;9.10;;;;;;;0.50;72.46;101247.00;5134771;27;20474;-60
2022/11/20 02:04:06;;;;;;;14.27;8.90;;;;;;;0.47;72.55;101248.50;5134728;27;20023;-60
2022/11/20 02:06:38;;;;;;;15.60;9.35;;;;;;;0.39;72.18;101247.22;5134655;27;20031;-60
2022/11/20 02:09:03;;;;;;;12.38;8.52;;;;;;;0.43;72.72;101238.78;5134508;27;20103;-60
2022/11/20 02:11:30;;;;;;;14.15;9.00;;;;;;;0.48;72.60;101240.81;5134654;27;20091;-60
2022/11/20 02:13:56;;;;;;;15.35;9.27;;;;;;;0.55;72.34;101234.25;5134645;27;20480;-60
2022/11/20 02:16:30;;;;;;;14.40;8.98;;;;;;;0.58;72.05;101237.03;5134534;27;20159;-60
2022/11/20 02:18:59;;;;;;;16.00;9.20;;;;;;;0.46;71.62;101242.44;5133239;27;20469;-60
2022/11/20 02:21:36;;;;;;;17.85;9.38;;;;;;;0.36;72.41;101249.63;5134494;27;20029;-59
2022/11/20 02:24:08;;;;;;;14.98;9.20;;;;;;;0.33;71.72;101239.94;5134397;27;20023;-61
2022/11/20 02:26:46;;;;;;;15.85;9.48;;;;;;;0.36;72.75;101229.72;5134300;27;20054;-60
2022/11/20 02:29:11;;;;;;;17.00;9.43;;;;;;;0.45;72.19;101219.84;5134349;27;20487;-60
2022/11/20 02:31:42;;;;;;;14.85;9.13;;;;;;;0.55;71.99;101226.47;5134444;27;20028;-60
2022/11/20 02:34:08;;;;;;;16.80;9.20;;;;;;;0.47;71.07;101225.13;5132944;27;20492;-60
2022/11/20 02:36:35;;;;;;;14.68;9.40;;;;;;;0.40;71.53;101226.50;5134061;27;20051;-61
2022/11/20 02:39:02;;;;;;;17.23;9.45;;;;;;;0.45;72.38;101224.16;5133878;27;20383;-61
2022/11/20 02:41:33;;;;;;;18.73;9.43;;;;;;;0.44;71.99;101227.56;5134262;27;20054;-60
2022/11/20 02:43:58;;;;;;;16.27;9.85;;;;;;;0.46;72.29;101221.63;5134238;27;20015;-60
2022/11/20 02:46:23;;;;;;;15.63;10.25;;;;;;;0.51;73.29;101216.69;5133956;27;20031;-60
2022/11/20 02:48:49;;;;;;;15.90;9.38;;;;;;;0.57;72.75;101216.16;5134115;27;20203;-59
2022/11/20 02:51:14;;;;;;;16.38;10.10;;;;;;;0.66;73.47;101216.69;5133984;27;20039;-60
2022/11/20 02:53:40;;;;;;;16.90;9.50;;;;;;;0.68;72.63;101225.44;5133864;27;20085;-60
2022/11/20 02:56:06;;;;;;;16.38;9.25;;;;;;;0.65;72.48;101223.59;5133968;27;20086;-60
2022/11/20 02:58:31;;;;;;;15.98;9.63;;;;;;;0.60;72.82;101217.25;5133879;27;20019;-60
2022/11/20 03:00:56;;;;;;;17.58;10.43;;;;;;;0.56;72.60;101225.69;5133835;27;20103;-60
2022/11/20 03:03:22;;;;;;;18.13;9.85;;;;;;;0.56;73.53;101220.47;5134072;27;20088;-60
2022/11/20 03:05:47;;;;;;;15.15;9.63;;;;;;;0.55;72.93;101217.75;5133729;27;20034;-60
2022/11/20 03:08:12;;;;;;;15.50;10.20;;;;;;;0.59;73.96;101220.63;5137509;27;20031;-60
2022/11/20 03:10:38;;;;;;;16.15;10.50;;;;;;;0.61;73.00;101219.03;5138039;27;20027;-60
2022/11/20 03:13:03;;;;;;;16.70;9.85;;;;;;;0.65;72.97;101215.78;5138006;27;20087;-64
2022/11/20 03:15:29;;;;;;;15.50;9.05;;;;;;;0.70;73.36;101216.03;5138211;27;20035;-60
2022/11/20 03:17:55;;;;;;;17.15;9.95;;;;;;;0.71;73.30;101223.91;5137988;27;20035;-60
2022/11/20 03:20:21;;;;;;;15.90;9.85;;;;;;;0.70;72.95;101211.72;5137932;27;20062;-60
2022/11/20 03:22:46;;;;;;;16.45;9.98;;;;;;;0.70;72.90;101222.13;5138104;27;20051;-60
2022/11/20 03:25:12;;;;;;;14.82;9.77;;;;;;;0.77;73.22;101214.66;5137756;27;20023;-60
2022/11/20 03:27:37;;;;;;;17.05;10.13;;;;;;;0.81;73.09;101214.91;5137778;27;20027;-60
2022/11/20 03:30:03;;;;;;;17.75;10.18;;;;;;;0.75;73.19;101212.00;5137877;27;20023;-60
2022/11/20 03:32:28;;;;;;;15.77;9.68;;;;;;;0.63;73.11;101206.97;5137686;27;20023;-60
2022/11/20 03:34:54;;;;;;;17.60;10.13;;;;;;;0.47;73.52;101212.13;5137924;27;20038;-60
2022/11/20 03:37:19;;;;;;;14.00;9.45;;;;;;;0.34;74.15;101207.03;5137221;27;20534;-60
2022/11/20 03:39:45;;;;;;;15.07;9.48;;;;;;;0.30;74.40;101208.59;5137630;27;20027;-60
2022/11/20 03:44:55;;;;;;;14.00;9.32;;;;;;;0.38;75.05;101191.69;5137707;27;20404;-60
2022/11/20 03:47:20;;;;;;;16.33;9.32;;;;;;;0.54;74.74;101182.19;5137608;27;20041;-60
2022/11/20 03:49:46;;;;;;;15.27;9.95;;;;;;;0.64;74.15;101180.19;5136089;27;20440;-60
2022/11/20 03:52:11;;;;;;;16.08;9.93;;;;;;;0.72;73.81;101178.88;5137272;27;20027;-60
2022/11/20 03:54:36;;;;;;;16.35;9.57;;;;;;;0.78;74.02;101177.47;5136148;27;20050;-60
2022/11/20 03:57:02;;;;;;;15.48;9.68;;;;;;;0.82;73.82;101176.81;5137225;27;20153;-60
2022/11/20 03:59:27;;;;;;;16.42;9.93;;;;;;;0.84;73.67;101180.38;5137077;27;20031;-60
2022/11/20 04:01:52;;;;;;;16.58;9.38;;;;;;;0.84;74.01;101175.19;5137008;27;20104;-60
2022/11/20 04:04:18;;;;;;;14.70;9.30;;;;;;;0.87;73.19;101171.06;5137385;27;20054;-60
2022/11/20 04:06:43;;;;;;;16.00;10.25;;;;;;;0.93;72.92;101167.88;5137224;27;20053;-61
2022/11/20 04:09:09;;;;;;;15.43;9.68;;;;;;;0.84;73.01;101162.19;5136825;27;20030;-60
2022/11/20 04:11:37;;;;;;;19.80;10.65;;;;;;;0.73;73.53;101159.00;5137205;27;20023;-60
2022/11/20 04:14:04;;;;;;;17.83;10.07;;;;;;;0.66;73.75;101175.97;5136908;27;20073;-60
2022/11/20 04:16:33;;;;;;;18.08;9.73;;;;;;;0.63;74.34;101170.56;5136821;27;20092;-60
2022/11/20 04:19:01;;;;;;;15.13;9.48;;;;;;;0.62;74.10;101174.00;5136749;27;20411;-60
2022/11/20 04:21:27;;;;;;;17.15;10.27;;;;;;;0.57;74.73;101165.06;5136720;27;20473;-60
2022/11/20 04:23:53;;;;;;;15.48;9.70;;;;;;;0.58;74.54;101164.22;5136596;27;20037;-60
2022/11/20 04:26:19;;;;;;;17.67;10.30;;;;;;;0.62;74.69;101166.19;5136805;27;20123;-60
2022/11/20 04:28:45;;;;;;;16.33;9.82;;;;;;;0.70;74.40;101172.72;5136646;27;20030;-60
2022/11/20 04:31:14;;;;;;;15.55;10.00;;;;;;;0.72;74.36;101165.88;5136664;27;20023;-61
2022/11/20 04:33:40;;;;;;;16.92;9.90;;;;;;;0.63;74.73;101160.19;5136620;27;20102;-60
2022/11/20 04:36:10;;;;;;;16.00;10.30;;;;;;;0.62;75.08;101154.91;5136286;27;20508;-61
2022/11/20 04:38:36;;;;;;;14.82;9.93;;;;;;;0.62;74.32;101161.00;5136371;27;20063;-61
2022/11/20 04:41:04;;;;;;;16.40;9.77;;;;;;;0.57;74.90;101158.97;5136319;27;20027;-60
2022/11/20 04:43:31;;;;;;;15.75;10.07;;;;;;;0.58;74.97;101153.84;5136323;27;20484;-60
2022/11/20 04:45:57;;;;;;;16.77;9.75;;;;;;;0.66;74.80;101162.97;5136137;27;20027;-60
2022/11/20 04:48:24;;;;;;;16.83;10.32;;;;;;;0.75;74.87;101165.16;5136254;27;20019;-61
2022/11/20 04:50:50;;;;;;;16.35;10.18;;;;;;;0.74;74.56;101164.28;5136179;27;20047;-60
2022/11/20 04:53:16;;;;;;;17.17;9.65;;;;;;;0.72;74.45;101165.00;5136129;27;20038;-61
2022/11/20 04:55:42;;;;;;;17.50;9.55;;;;;;;0.75;75.15;101153.06;5136056;27;20023;-60
2022/11/20 04:58:07;;;;;;;17.27;9.93;;;;;;;0.77;74.18;101158.34;5136296;27;20096;-60
2022/11/20 05:00:32;;;;;;;17.02;9.73;;;;;;;0.67;74.80;101151.75;5135931;27;20027;-60
2022/11/20 05:02:58;;;;;;;17.27;9.82;;;;;;;0.59;75.50;101147.81;5136190;27;20110;-60
2022/11/20 05:05:23;;;;;;;15.07;9.75;;;;;;;0.74;75.05;101150.38;5135752;27;20035;-60
2022/11/20 05:07:49;;;;;;;16.25;9.90;;;;;;;0.70;75.26;101144.13;5135673;27;20076;-60
2022/11/20 05:10:14;;;;;;;15.52;9.95;;;;;;;0.62;74.89;101139.31;5135837;27;20443;-60
2022/11/20 05:12:40;;;;;;;17.05;9.80;;;;;;;0.65;75.80;101137.78;5135629;27;20042;-60
2022/11/20 05:15:05;;;;;;;16.75;9.48;;;;;;;0.66;75.02;101136.94;5135768;27;20023;-60
2022/11/20 05:17:31;;;;;;;15.70;10.00;;;;;;;0.63;75.31;101134.19;5135659;27;20503;-60
2022/11/20 05:19:56;;;;;;;16.02;10.20;;;;;;;0.59;75.16;101136.53;5135584;27;20083;-60
2022/11/20 05:22:22;;;;;;;16.40;10.05;;;;;;;0.54;75.64;101133.66;5135579;27;20384;-61
2022/11/20 05:24:47;;;;;;;15.80;10.05;;;;;;;0.49;75.26;101130.81;5135501;27;20055;-61
2022/11/20 05:27:12;;;;;;;16.38;10.25;;;;;;;0.48;75.90;101128.16;5135472;27;20026;-60
2022/11/20 05:29:38;;;;;;;15.98;9.82;;;;;;;0.49;76.48;101120.41;5134728;27;20118;-60
2022/11/20 05:32:05;;;;;;;16.50;10.40;;;;;;;0.56;75.86;101129.47;5135376;27;20525;-60
2022/11/20 05:34:30;;;;;;;16.50;10.45;;;;;;;0.50;75.49;101124.81;5135305;27;20055;-60
2022/11/20 05:36:56;;;;;;;19.55;10.52;;;;;;;0.55;76.53;101125.06;5135127;27;20131;-60
2022/11/20 05:39:21;;;;;;;16.13;9.82;;;;;;;0.57;75.67;101128.66;5134968;27;20027;-61
2022/11/20 05:42:29;;;;;;;18.13;10.85;;;;;;;0.52;75.57;101124.91;5135316;27;20068;-60
2022/11/20 05:44:32;;;;;;;15.93;9.98;;;;;;;0.54;75.78;101122.38;5134895;27;20042;-60
2022/11/20 05:46:57;;;;;;;17.75;10.57;;;;;;;0.57;76.25;101133.84;5134946;27;20395;-60
2022/11/20 05:49:22;;;;;;;15.10;9.60;;;;;;;0.56;76.32;101133.75;5135046;27;20019;-60
2022/11/20 05:51:48;;;;;;;18.80;10.23;;;;;;;0.60;76.25;101139.22;5135144;27;20023;-60
2022/11/20 05:54:13;;;;;;;15.60;9.80;;;;;;;0.70;76.52;101130.22;5135030;27;20027;-60
2022/11/20 05:56:38;;;;;;;16.88;10.52;;;;;;;0.79;75.89;101137.63;5134892;27;20058;-60
2022/11/20 05:59:04;;;;;;;18.92;10.32;;;;;;;0.91;75.46;101148.72;5133449;27;20023;-60
2022/11/20 06:01:29;;;;;;;15.82;9.63;;;;;;;1.03;76.15;101158.84;5134786;27;20023;-60
2022/11/20 06:03:54;;;;;;;17.27;10.15;;;;;;;1.12;75.51;101159.38;5134799;27;20387;-60
2022/11/20 06:06:20;;;;;;;18.00;10.10;;;;;;;1.17;74.61;101158.81;5134654;27;20031;-61
2022/11/20 06:08:46;;;;;;;17.40;10.38;;;;;;;1.20;74.72;101160.66;5134483;27;20038;-60
2022/11/20 06:11:13;;;;;;;17.27;10.77;;;;;;;1.14;74.48;101155.13;5134727;27;20030;-60
2022/11/20 06:13:39;;;;;;;18.35;11.10;;;;;;;1.11;74.86;101157.56;5134823;27;20041;-60
2022/11/20 06:16:05;;;;;;;15.63;9.85;;;;;;;1.14;74.40;101162.94;5134556;27;20551;-60
2022/11/20 06:18:30;;;;;;;19.30;11.10;;;;;;;1.14;75.03;101161.22;5134484;27;20029;-61
2022/11/20 06:21:01;;;;;;;15.65;9.73;;;;;;;1.18;75.00;101157.97;5133190;27;20067;-60
2022/11/20 06:23:28;;;;;;;18.30;10.77;;;;;;;1.25;74.90;101160.09;5134482;27;20089;-60
2022/11/20 06:25:54;;;;;;;15.60;9.90;;;;;;;1.27;74.13;101149.75;5134368;27;20037;-61
2022/11/20 06:28:19;;;;;;;17.85;10.27;;;;;;;1.27;74.75;101154.97;5134655;27;20110;-61
2022/11/20 06:30:45;;;;;;;18.05;10.13;;;;;;;1.27;75.05;101156.69;5115807;27;20545;-60
2022/11/20 06:33:11;;;;;;;15.68;10.48;;;;;;;1.26;74.71;101155.78;5134255;27;20027;-60
2022/11/20 06:35:36;;;;;;;17.65;10.45;;;;;;;1.31;74.74;101167.34;5133891;27;20034;-60
2022/11/20 06:38:01;;;;;;;14.02;9.23;;;;;;;1.31;75.07;101159.53;5133995;27;20019;-61
2022/11/20 06:40:27;;;;;;;18.08;10.57;;;;;;;1.35;74.55;101153.66;5134136;27;20330;-61
2022/11/20 06:42:54;;;;;;;15.15;9.88;;;;;;;1.37;74.00;101152.06;5134112;27;20106;-60
2022/11/20 06:45:19;;;;;;;16.73;10.10;;;;;;;1.41;74.06;101155.69;5134332;27;20069;-61
2022/11/20 06:47:44;;;;;;;15.73;10.10;;;;;;;1.41;74.26;101148.81;5134055;27;20058;-60
2022/11/20 06:50:10;;;;;;;16.45;10.48;;;;;;;1.42;73.98;101144.50;5133982;27;20035;-61
2022/11/20 06:52:35;;;;;;;17.15;9.82;;;;;;;1.44;74.19;101137.63;5133995;27;20020;-60
2022/11/20 06:55:00;;;;;;;16.90;10.25;;;;;;;1.39;74.56;101133.91;5133915;27;20042;-60
2022/11/20 06:57:26;;;;;;;16.90;10.45;;;;;;;1.33;75.07;101133.56;5133906;27;20132;-61
2022/11/20 06:59:51;;;;;;;17.60;10.27;;;;;;;1.31;74.58;101132.59;5134021;27;20422;-60
2022/11/20 07:02:16;;;;;;;19.20;10.52;;;;;;;1.31;74.87;101137.81;5133827;27;20095;-60
2022/11/20 07:04:42;;;;;;;16.58;10.23;;;;;;;1.30;75.13;101134.31;5133820;27;20076;-60
2022/11/20 07:07:08;;;;;;;17.38;10.98;;;;;;;1.22;74.79;101131.31;5133883;27;20410;-60
2022/11/20 07:09:34;;;;;;;17.02;10.18;;;;;;;1.24;75.61;101136.56;5133685;27;20110;-60
2022/11/20 07:11:59;;;;;;;16.73;9.85;;;;;;;1.25;76.54;101134.06;5133810;27;20168;-60
2022/11/20 07:14:25;;;;;;;16.83;10.13;;;;;;;1.24;74.94;101140.09;5133787;27;20050;-60
2022/11/20 07:16:50;;;;;;;18.27;11.13;;;;;;;1.21;75.89;101137.34;5133716;27;20123;-60
2022/11/20 07:19:15;;;;;;;16.88;10.50;;;;;;;1.15;75.90;101130.91;5133711;27;20127;-60
2022/11/20 07:21:41;;;;;;;17.17;9.85;;;;;;;1.09;76.36;101133.19;5133662;27;20030;-60
2022/11/20 07:24:06;;;;;;;18.02;10.70;;;;;;;1.05;76.26;101131.22;5133592;27;20027;-60
2022/11/20 07:26:32;;;;;;;18.40;11.15;;;;;;;1.07;76.35;101133.13;5133409;27;20114;-61
2022/11/20 07:28:57;;;;;;;16.80;10.27;;;;;;;1.13;76.54;101122.13;5133712;27;20066;-60
2022/11/20 07:31:23;;;;;;;19.13;10.98;;;;;;;1.23;76.50;101125.28;5133583;28;20354;-60
2022/11/20 07:33:48;;;;;;;18.05;10.63;;;;;;;1.34;76.91;101122.38;5132202;28;20033;-59
2022/11/20 07:36:13;;;;;;;19.65;10.85;;;;;;;1.40;76.02;101114.84;5133226;27;20043;-60
2022/11/20 07:38:39;;;;;;;15.90;10.30;;;;;;;1.44;76.05;101122.00;5133530;27;20375;-60
2022/11/20 07:41:04;;;;;;;17.60;10.32;;;;;;;1.42;75.76;101119.34;5133482;27;20055;-60
2022/11/20 07:43:30;;;;;;;15.65;10.13;;;;;;;1.42;75.64;101115.84;5133394;27;20027;-62
2022/11/20 07:45:57;;;;;;;18.88;11.15;;;;;;;1.41;76.63;101116.63;5133581;27;20043;-60
2022/11/20 07:48:23;;;;;;;18.05;10.60;;;;;;;1.36;76.67;101120.72;5133353;27;20033;-60
2022/11/20 07:50:48;;;;;;;17.63;9.73;;;;;;;1.36;76.89;101119.00;5133560;27;20027;-60
2022/11/20 07:53:13;;;;;;;18.00;11.05;;;;;;;1.36;77.29;101119.00;5135175;27;20046;-60
2022/11/20 07:55:39;;;;;;;20.45;10.68;;;;;;;1.35;76.41;101130.25;5137156;27;20027;-60
2022/11/20 07:58:04;;;;;;;17.05;10.45;;;;;;;1.34;76.57;101123.25;5137160;27;20476;-60
2022/11/20 08:00:30;;;;;;;19.25;10.82;;;;;;;1.35;76.57;101116.34;5137128;27;20495;-60
2022/11/20 08:02:55;;;;;;;23.70;13.15;;;;;;;1.38;77.84;101119.09;5136965;27;20058;-60
2022/11/20 08:05:21;;;;;;;20.65;11.80;;;;;;;1.43;78.40;101123.72;5136850;27;20030;-60
2022/11/20 08:07:47;;;;;;;20.60;12.20;;;;;;;1.49;77.71;101117.94;5136826;27;20425;-60
2022/11/20 08:10:15;;;;;;;18.13;10.88;;;;;;;1.57;76.78;101126.13;5137020;27;20019;-60
2022/11/20 08:15:37;;;;;;;17.23;10.82;;;;;;;1.53;76.73;101135.50;5137187;27;20081;-60
2022/11/20 08:18:11;;;;;;;19.17;11.55;;;;;;;1.46;76.24;101123.00;5136732;27;20039;-59
2022/11/20 08:20:37;;;;;;;17.73;10.93;;;;;;;1.37;77.58;101126.03;5136689;27;20019;-60
2022/11/20 08:23:07;;;;;;;18.10;11.32;;;;;;;1.39;77.76;101118.28;5136877;27;20031;-62
2022/11/20 08:25:34;;;;;;;21.73;13.63;;;;;;;1.46;78.24;101103.06;5136677;27;20030;-60
2022/11/20 08:28:01;;;;;;;20.00;11.13;;;;;;;1.48;77.60;101108.34;5136553;27;20023;-61
2022/11/20 08:30:27;;;;;;;21.45;12.85;;;;;;;1.48;78.00;101109.22;5136508;27;20507;-61
2022/11/20 08:32:53;;;;;;;26.17;15.35;;;;;;;1.50;78.48;101099.81;5136493;27;20031;-62
2022/11/20 08:35:19;;;;;;;20.52;11.85;;;;;;;1.49;77.61;101100.59;5136346;27;20476;-61
2022/11/20 08:37:48;;;;;;;21.83;11.30;;;;;;;1.51;78.68;101103.28;5135772;27;20557;-61
2022/11/20 08:40:14;;;;;;;18.88;11.43;;;;;;;1.49;78.48;101111.00;5136280;27;20413;-63
2022/11/20 08:42:50;;;;;;;18.40;11.25;;;;;;;1.52;79.09;101114.59;5136230;27;20039;-62
2022/11/20 08:45:17;;;;;;;19.90;11.80;;;;;;;1.43;78.31;101115.03;5136418;27;20023;-61
2022/11/20 08:47:43;;;;;;;18.08;12.05;;;;;;;1.43;78.79;101117.63;5136102;27;20019;-61
2022/11/20 08:50:09;;;;;;;17.85;10.82;;;;;;;1.48;78.63;101118.75;5136379;27;20023;-61
2022/11/20 08:52:35;;;;;;;18.85;11.20;;;;;;;1.48;78.82;101117.03;5136237;27;20022;-62
2022/11/20 08:55:00;;;;;;;20.88;12.02;;;;;;;1.53;79.24;101108.56;5136078;27;20027;-61
2022/11/20 08:57:25;;;;;;;19.10;11.18;;;;;;;1.48;80.01;101096.22;5136057;27;20039;-61
2022/11/20 08:59:51;;;;;;;20.73;11.82;;;;;;;1.53;79.84;101099.03;5135882;27;20429;-61
2022/11/20 09:02:16;;;;;;;20.88;12.15;;;;;;;1.53;80.36;101104.25;5134641;27;20020;-61
2022/11/20 09:04:41;;;;;;;20.25;12.57;;;;;;;1.51;80.75;101108.50;5116266;27;20024;-61
2022/11/20 09:07:07;;;;;;;19.38;12.15;;;;;;;1.52;80.76;101098.97;5135833;27;20054;-61
2022/11/20 09:09:33;;;;;;;19.90;12.60;;;;;;;1.56;80.65;101103.53;5135718;27;20553;-62
2022/11/20 09:11:58;;;;;;;19.48;12.35;;;;;;;1.61;81.03;101102.03;5135698;27;20027;-62
2022/11/20 09:14:28;;;;;;;21.33;12.35;;;;;;;1.61;80.59;101097.72;5135584;27;20028;-62
2022/11/20 09:16:54;;;;;;;19.92;11.80;;;;;;;1.65;81.11;101101.38;5135199;27;20559;-61
2022/11/20 09:19:20;;;;;;;19.27;12.25;;;;;;;1.71;80.76;101088.66;5135396;27;20050;-62
2022/11/20 09:21:45;;;;;;;21.15;11.73;;;;;;;1.81;81.74;101090.94;5135467;27;20053;-62
2022/11/20 09:24:11;;;;;;;21.90;12.20;;;;;;;1.88;81.33;101085.19;5135416;27;20027;-62
2022/11/20 09:26:37;;;;;;;20.70;12.88;;;;;;;1.95;81.15;101083.78;5135149;27;20100;-61
2022/11/20 09:29:02;;;;;;;24.67;13.82;;;;;;;1.98;81.40;101083.94;5135665;27;20055;-62
2022/11/20 09:31:28;;;;;;;21.08;12.13;;;;;;;1.99;81.46;101075.28;5134137;27;20362;-61
2022/11/20 09:33:53;;;;;;;23.80;13.73;;;;;;;2.00;81.82;101085.78;5135315;27;20098;-62
2022/11/20 09:36:19;;;;;;;21.27;12.75;;;;;;;2.05;82.23;101088.59;5133987;27;20043;-61
2022/11/20 09:38:45;;;;;;;23.02;12.82;;;;;;;2.09;82.13;101080.13;5135327;27;20031;-62
2022/11/20 09:41:49;;;;;;;19.85;12.75;;;;;;;2.14;82.52;101075.13;5135080;27;20496;-63
2022/11/20 09:44:35;;;;;;;21.88;12.65;;;;;;;2.20;82.84;101071.13;5135252;27;20027;-64
2022/11/20 09:47:15;;;;;;;23.48;13.15;;;;;;;2.31;82.42;101071.63;5135070;27;20048;-62
2022/11/20 09:50:05;;;;;;;20.45;12.65;;;;;;;2.37;82.20;101065.81;5135131;27;20059;-61
2022/11/20 09:52:45;;;;;;;25.08;13.25;;;;;;;2.46;81.89;101055.81;5133636;27;20027;-62
2022/11/20 09:55:13;;;;;;;25.48;13.63;;;;;;;2.49;82.36;101050.75;5135012;27;20469;-63
2022/11/20 09:57:45;;;;;;;26.88;13.95;;;;;;;2.52;82.01;101058.69;5134925;27;20030;-62
2022/11/20 10:00:14;;;;;;;23.48;13.18;;;;;;;2.51;81.96;101044.75;5134264;27;20065;-62
2022/11/20 10:02:43;;;;;;;29.30;14.68;;;;;;;2.58;82.83;101051.16;5135079;27;20452;-62
2022/11/20 10:05:19;;;;;;;26.02;13.27;;;;;;;2.60;82.45;101046.91;5134716;27;20023;-63
2022/11/20 10:08:13;;;;;;;26.45;13.43;;;;;;;2.61;82.65;101038.28;5133068;27;20472;-62
2022/11/20 10:10:39;;;;;;;25.33;14.13;;;;;;;2.61;82.44;101032.13;5134562;27;20106;-63
2022/11/20 10:13:35;;;;;;;29.42;13.77;;;;;;;2.59;83.04;101029.47;5134559;27;20098;-62
2022/11/20 10:16:11;;;;;;;31.40;14.80;;;;;;;2.58;83.49;101027.69;5131821;27;20484;-62
2022/11/20 10:19:27;;;;;;;32.47;15.02;;;;;;;2.62;83.58;101018.28;5134342;27;20461;-62
2022/11/20 10:22:16;;;;;;;36.78;15.43;;;;;;;2.67;83.34;101016.78;5091067;28;20032;-63
2022/11/20 10:24:42;;;;;;;36.50;17.08;;;;;;;2.73;83.73;101011.81;5091244;28;20028;-61
2022/11/20 10:27:26;;;;;;;37.78;15.85;;;;;;;2.73;83.77;100988.34;5121535;27;20039;-62
2022/11/20 10:30:08;;;;;;;38.85;17.45;;;;;;;2.74;83.96;100988.44;5134030;27;20111;-63
2022/11/20 10:32:39;;;;;;;40.65;17.85;;;;;;;2.76;84.49;100978.94;5134278;27;20066;-62
2022/11/20 10:35:22;;;;;;;36.25;16.85;;;;;;;2.82;84.89;100962.66;5134132;27;20023;-62
2022/11/20 10:37:53;;;;;;;35.25;15.75;;;;;;;2.85;85.01;100951.47;5133573;27;20054;-66
2022/11/20 10:40:21;;;;;;;41.75;18.33;;;;;;;2.86;85.07;100955.84;5134003;27;20038;-62
2022/11/20 10:42:55;;;;;;;40.67;18.33;;;;;;;2.82;84.66;100949.59;5134141;27;20380;-62
2022/11/20 10:45:24;;;;;;;39.55;18.10;;;;;;;2.88;85.27;100949.00;5115368;27;20019;-62
2022/11/20 10:47:52;;;;;;;43.95;18.20;;;;;;;2.91;85.26;100942.19;5134170;27;20356;-62
2022/11/20 10:50:21;;;;;;;48.95;18.23;;;;;;;2.92;85.58;100932.66;5133656;27;20387;-63
2022/11/20 10:52:50;;;;;;;43.22;19.38;;;;;;;2.94;85.45;100942.31;5133622;27;20019;-62
2022/11/20 10:55:18;;;;;;;47.13;19.10;;;;;;;2.88;85.77;100931.63;5133066;27;20418;-64
2022/11/20 10:57:57;;;;;;;43.47;18.75;;;;;;;2.87;85.74;100918.47;5131965;27;20071;-62
2022/11/20 11:00:23;;;;;;;49.67;19.95;;;;;;;2.87;85.88;100918.47;5134036;27;20058;-62
2022/11/20 11:02:56;;;;;;;46.42;18.85;;;;;;;2.91;85.92;100912.56;5134015;27;20054;-62
2022/11/20 11:05:34;;;;;;;46.85;18.38;;;;;;;2.85;86.46;100905.38;5133645;27;20426;-63
2022/11/20 11:07:59;;;;;;;42.65;17.52;;;;;;;2.87;86.39;100902.81;5133645;28;20117;-63
2022/11/20 11:10:53;;;;;;;46.50;18.95;;;;;;;2.91;86.93;100902.13;5133834;27;20477;-63
2022/11/20 11:13:22;;;;;;;45.90;20.20;;;;;;;2.88;86.96;100895.09;5132089;28;20031;-61
2022/11/20 11:15:48;;;;;;;51.17;22.17;;;;;;;2.87;87.56;100892.38;5133716;27;20481;-61
2022/11/20 11:18:28;;;;;;;45.03;19.83;;;;;;;2.90;87.88;100893.41;5133929;27;20039;-62
2022/11/20 11:20:55;;;;;;;45.90;20.20;;;;;;;2.89;87.90;100889.03;5133620;27;20046;-63
2022/11/20 11:23:38;;;;;;;46.53;20.33;;;;;;;2.97;87.66;100900.69;5133908;27;20035;-62
2022/11/20 11:26:27;;;;;;;46.28;20.75;;;;;;;3.00;88.36;100903.44;5133616;27;20023;-62
2022/11/20 11:29:03;;;;;;;53.55;23.02;;;;;;;3.04;88.44;100901.84;5136075;27;20114;-62
2022/11/20 11:31:34;;;;;;;54.78;24.48;;;;;;;3.00;88.95;100902.53;5137681;27;20019;-63